Impacts TAF Board INFO
FOR SITUATIONAL AWARENESS. NOT TO BE USED FOR FLIGHT PLANNING PURPOSES.
IDs:

KBOS - Boston/Logan Intl, MA, US

Issued at 0527 UTC 22 Nov 2017
Updated at 0544 UTC 22 Nov 2017
Potential Impact None Slight Moderate High
Time0454Z 22/06Z 22/07Z 22/08Z 22/09Z 22/10Z 22/11Z 22/12Z 22/13Z 22/14Z 22/15Z 22/16Z 22/17Z 22/18Z>>
Type OBS PRVL PRVL PRVL PRVL PRVL PRVL PRVL PRVL PRVL PRVL PRVL PRVL PRVL
VIS 10 >6 >6 >6 >6 >6 >6 >6 >6 2 2 2 4 4
CIG -- -- -- -- -- -- 25 25 25 8 8 8 8 8
Cover SCT SCT SCT SCT SCT SCT OVC OVC OVC OVC OVC OVC OVC OVC
FltCat VFR VFR VFR VFR VFR VFR MVFR MVFR MVFR IFR IFR IFR IFR IFR
WX -- -- -- -- -- -- -RA -RA -RA RA BR RA BR RA BR -RA BR -RA BR
WDir 210 220 220 220 220 220 190 190 190 190 190 190 270 270
WSpd 6 12 12 12 12 12 7 7 7 4 4 4 4 4
WGst -- -- -- -- -- -- -- -- -- -- -- -- -- --

Raw TAF
KBOS 220527Z 2206/2312 22012KT P6SM SCT250
  FM221100 19007KT P6SM -RA BKN025 OVC040
  FM221400 19004KT 2SM RA BR OVC008
  FM221700 27004KT 4SM -RA BR OVC008
  FM221900 31010G17KT 5SM BR VCSH BKN008
  FM222200 33012G24KT P6SM SCT025
  FM230900 31010G20KT P6SM SKC


Raw METAR
KBOS 220454Z 21006KT 10SM SCT240 10/04 A3003 RMK AO2 SLP170 T01000039 401500017
KBOS 220354Z 22010KT 10SM SCT230 10/04 A3002 RMK AO2 SLP165 T01000044
KBOS 220254Z 22011KT 10SM SCT230 09/05 A3001 RMK AO2 SLP161 T00940050 53001

METAR Board
Radar Display
Forecast Discussion

FOR SITUATIONAL AWARENESS. NOT TO BE USED FOR FLIGHT PLANNING PURPOSES.